sensor_id;sensor_type;location;lat;lon;timestamp;pressure;altitude;pressure_sealevel;temperature;humidity
6218;BME280;3142;48.206;11.550;2023-03-14T00:01:13;94311.94;;;13.37;67.02
6218;BME280;3142;48.206;11.550;2023-03-14T00:03:40;94306.88;;;13.25;66.35
6218;BME280;3142;48.206;11.550;2023-03-14T00:06:07;94302.66;;;13.24;66.30
6218;BME280;3142;48.206;11.550;2023-03-14T00:08:34;94294.78;;;13.24;66.36
6218;BME280;3142;48.206;11.550;2023-03-14T00:11:04;94286.09;;;13.24;66.40
6218;BME280;3142;48.206;11.550;2023-03-14T00:13:31;94276.41;;;13.24;66.55
6218;BME280;3142;48.206;11.550;2023-03-14T00:16:01;94263.00;;;13.26;66.55
6218;BME280;3142;48.206;11.550;2023-03-14T00:18:29;94266.44;;;13.26;66.98
6218;BME280;3142;48.206;11.550;2023-03-14T00:20:58;94279.88;;;13.30;66.92
6218;BME280;3142;48.206;11.550;2023-03-14T00:23:26;94292.44;;;13.28;67.51
6218;BME280;3142;48.206;11.550;2023-03-14T00:25:53;94302.94;;;13.28;67.19
6218;BME280;3142;48.206;11.550;2023-03-14T00:28:19;94304.00;;;13.27;66.45
6218;BME280;3142;48.206;11.550;2023-03-14T00:30:45;94294.53;;;13.26;66.92
6218;BME280;3142;48.206;11.550;2023-03-14T00:33:12;94264.31;;;13.23;68.24
6218;BME280;3142;48.206;11.550;2023-03-14T00:35:39;94247.97;;;13.16;67.69
6218;BME280;3142;48.206;11.550;2023-03-14T00:38:06;94257.84;;;13.04;67.49
6218;BME280;3142;48.206;11.550;2023-03-14T00:40:32;94260.16;;;13.00;68.15
6218;BME280;3142;48.206;11.550;2023-03-14T00:42:58;94264.16;;;13.08;68.24
6218;BME280;3142;48.206;11.550;2023-03-14T00:45:25;94273.66;;;13.14;68.08
6218;BME280;3142;48.206;11.550;2023-03-14T00:47:51;94290.28;;;13.20;68.30
6218;BME280;3142;48.206;11.550;2023-03-14T00:50:18;94299.75;;;13.21;68.32
6218;BME280;3142;48.206;11.550;2023-03-14T00:52:45;94310.00;;;13.22;68.81
6218;BME280;3142;48.206;11.550;2023-03-14T00:55:13;94301.34;;;13.22;67.57
6218;BME280;3142;48.206;11.550;2023-03-14T00:57:40;94303.66;;;13.18;67.71
6218;BME280;3142;48.206;11.550;2023-03-14T01:00:07;94305.72;;;13.16;68.02
6218;BME280;3142;48.206;11.550;2023-03-14T01:02:36;94297.53;;;13.13;68.24
6218;BME280;3142;48.206;11.550;2023-03-14T01:05:03;94318.25;;;13.09;68.35
6218;BME280;3142;48.206;11.550;2023-03-14T01:07:30;94313.00;;;13.09;68.91
6218;BME280;3142;48.206;11.550;2023-03-14T01:09:58;94312.22;;;13.09;69.40
6218;BME280;3142;48.206;11.550;2023-03-14T01:12:24;94312.47;;;13.07;68.64
6218;BME280;3142;48.206;11.550;2023-03-14T01:14:50;94317.19;;;13.05;69.34
6218;BME280;3142;48.206;11.550;2023-03-14T01:17:17;94312.19;;;13.03;70.66
6218;BME280;3142;48.206;11.550;2023-03-14T01:19:43;94324.53;;;13.03;71.07
6218;BME280;3142;48.206;11.550;2023-03-14T01:22:09;94333.13;;;12.98;71.82
6218;BME280;3142;48.206;11.550;2023-03-14T01:24:36;94329.41;;;12.94;71.81
6218;BME280;3142;48.206;11.550;2023-03-14T01:27:04;94337.00;;;12.91;71.36
6218;BME280;3142;48.206;11.550;2023-03-14T01:29:31;94341.94;;;12.87;71.00
6218;BME280;3142;48.206;11.550;2023-03-14T01:31:57;94348.97;;;12.82;72.79
6218;BME280;3142;48.206;11.550;2023-03-14T01:34:24;94345.25;;;12.78;72.49
6218;BME280;3142;48.206;11.550;2023-03-14T01:36:50;94344.94;;;12.74;73.05
6218;BME280;3142;48.206;11.550;2023-03-14T01:39:16;94345.50;;;12.76;74.15
6218;BME280;3142;48.206;11.550;2023-03-14T01:41:43;94351.97;;;12.68;73.82
6218;BME280;3142;48.206;11.550;2023-03-14T01:44:12;94355.09;;;12.65;73.43
6218;BME280;3142;48.206;11.550;2023-03-14T01:46:39;94354.56;;;12.63;74.62
6218;BME280;3142;48.206;11.550;2023-03-14T01:49:17;94352.91;;;12.57;75.02
6218;BME280;3142;48.206;11.550;2023-03-14T01:51:49;94350.28;;;12.57;74.93
6218;BME280;3142;48.206;11.550;2023-03-14T01:54:20;94351.06;;;12.58;74.35
6218;BME280;3142;48.206;11.550;2023-03-14T01:56:53;94350.47;;;12.51;75.54
6218;BME280;3142;48.206;11.550;2023-03-14T01:59:24;94355.72;;;12.51;75.89
6218;BME280;3142;48.206;11.550;2023-03-14T02:01:51;94361.38;;;12.42;75.96
6218;BME280;3142;48.206;11.550;2023-03-14T02:04:19;94350.59;;;12.39;76.53
6218;BME280;3142;48.206;11.550;2023-03-14T02:06:51;94354.75;;;12.35;77.38
6218;BME280;3142;48.206;11.550;2023-03-14T02:09:19;94346.81;;;12.30;77.29
6218;BME280;3142;48.206;11.550;2023-03-14T02:11:46;94340.47;;;12.26;77.50
6218;BME280;3142;48.206;11.550;2023-03-14T02:14:21;94338.25;;;12.18;78.85
6218;BME280;3142;48.206;11.550;2023-03-14T02:16:51;94323.31;;;12.18;78.11
6218;BME280;3142;48.206;11.550;2023-03-14T02:19:23;94323.47;;;12.06;78.90
6218;BME280;3142;48.206;11.550;2023-03-14T02:21:57;94324.91;;;11.97;78.18
6218;BME280;3142;48.206;11.550;2023-03-14T02:24:33;94319.09;;;11.78;79.13
6218;BME280;3142;48.206;11.550;2023-03-14T02:27:05;94291.56;;;11.76;78.79
6218;BME280;3142;48.206;11.550;2023-03-14T02:29:33;94277.31;;;11.67;79.50
6218;BME280;3142;48.206;11.550;2023-03-14T02:32:01;94264.66;;;11.64;78.07
6218;BME280;3142;48.206;11.550;2023-03-14T02:34:28;94243.66;;;11.58;78.13
6218;BME280;3142;48.206;11.550;2023-03-14T02:36:56;94222.00;;;11.46;78.81
6218;BME280;3142;48.206;11.550;2023-03-14T02:39:27;94215.13;;;11.40;78.69
6218;BME280;3142;48.206;11.550;2023-03-14T02:41:56;94191.66;;;11.28;78.94
6218;BME280;3142;48.206;11.550;2023-03-14T02:44:24;94188.66;;;11.20;79.14
6218;BME280;3142;48.206;11.550;2023-03-14T02:46:51;94184.53;;;11.07;79.25
6218;BME280;3142;48.206;11.550;2023-03-14T02:49:17;94180.59;;;11.05;79.67
6218;BME280;3142;48.206;11.550;2023-03-14T02:51:45;94176.63;;;11.02;79.81
6218;BME280;3142;48.206;11.550;2023-03-14T02:54:13;94165.38;;;11.02;80.21
6218;BME280;3142;48.206;11.550;2023-03-14T02:56:40;94170.53;;;10.96;80.35
6218;BME280;3142;48.206;11.550;2023-03-14T02:59:07;94172.13;;;10.97;79.80
6218;BME280;3142;48.206;11.550;2023-03-14T03:01:34;94178.16;;;10.98;79.95
6218;BME280;3142;48.206;11.550;2023-03-14T03:04:01;94193.38;;;11.01;79.37
6218;BME280;3142;48.206;11.550;2023-03-14T03:06:27;94193.38;;;11.01;79.21
6218;BME280;3142;48.206;11.550;2023-03-14T03:08:54;94199.69;;;11.05;78.73
6218;BME280;3142;48.206;11.550;2023-03-14T03:11:20;94205.47;;;11.07;78.79
6218;BME280;3142;48.206;11.550;2023-03-14T03:13:47;94198.75;;;11.11;78.27
6218;BME280;3142;48.206;11.550;2023-03-14T03:16:13;94204.44;;;11.08;77.84
6218;BME280;3142;48.206;11.550;2023-03-14T03:18:41;94197.88;;;11.06;77.54
6218;BME280;3142;48.206;11.550;2023-03-14T03:21:08;94200.34;;;11.12;77.00
6218;BME280;3142;48.206;11.550;2023-03-14T03:23:35;94192.47;;;11.12;76.62
6218;BME280;3142;48.206;11.550;2023-03-14T03:26:01;94187.94;;;11.08;76.79
6218;BME280;3142;48.206;11.550;2023-03-14T03:28:28;94185.75;;;11.00;76.89
6218;BME280;3142;48.206;11.550;2023-03-14T03:30:55;94185.66;;;10.94;77.31
6218;BME280;3142;48.206;11.550;2023-03-14T03:33:21;94182.00;;;10.95;77.56
6218;BME280;3142;48.206;11.550;2023-03-14T03:35:50;94194.78;;;10.92;76.95
6218;BME280;3142;48.206;11.550;2023-03-14T03:38:17;94184.81;;;10.89;77.01
6218;BME280;3142;48.206;11.550;2023-03-14T03:40:45;94164.91;;;10.88;76.84
6218;BME280;3142;48.206;11.550;2023-03-14T03:43:11;94169.09;;;10.89;76.93
6218;BME280;3142;48.206;11.550;2023-03-14T03:45:38;94169.84;;;10.84;76.20
6218;BME280;3142;48.206;11.550;2023-03-14T03:48:05;94168.94;;;10.79;76.80
6218;BME280;3142;48.206;11.550;2023-03-14T03:50:32;94169.13;;;10.72;76.88
6218;BME280;3142;48.206;11.550;2023-03-14T03:52:59;94176.97;;;10.72;77.11
6218;BME280;3142;48.206;11.550;2023-03-14T03:55:26;94172.22;;;10.69;76.50
6218;BME280;3142;48.206;11.550;2023-03-14T03:57:54;94161.97;;;10.67;76.90
6218;BME280;3142;48.206;11.550;2023-03-14T04:00:21;94167.13;;;10.62;76.39
6218;BME280;3142;48.206;11.550;2023-03-14T04:02:47;94164.53;;;10.62;76.39
6218;BME280;3142;48.206;11.550;2023-03-14T04:05:14;94174.50;;;10.65;76.38
6218;BME280;3142;48.206;11.550;2023-03-14T04:07:40;94171.34;;;10.63;75.60
6218;BME280;3142;48.206;11.550;2023-03-14T04:10:09;94155.88;;;10.62;75.78
6218;BME280;3142;48.206;11.550;2023-03-14T04:12:36;94160.81;;;10.58;76.03
6218;BME280;3142;48.206;11.550;2023-03-14T04:15:02;94164.22;;;10.59;75.73
6218;BME280;3142;48.206;11.550;2023-03-14T04:17:29;94174.75;;;10.64;74.98
6218;BME280;3142;48.206;11.550;2023-03-14T04:19:55;94151.69;;;10.61;75.09
6218;BME280;3142;48.206;11.550;2023-03-14T04:22:22;94159.53;;;10.61;74.21
6218;BME280;3142;48.206;11.550;2023-03-14T04:24:48;94161.59;;;10.59;74.23
6218;BME280;3142;48.206;11.550;2023-03-14T04:27:16;94158.88;;;10.54;74.46
6218;BME280;3142;48.206;11.550;2023-03-14T04:29:42;94142.16;;;10.55;74.01
6218;BME280;3142;48.206;11.550;2023-03-14T04:32:09;94155.09;;;10.61;73.88
6218;BME280;3142;48.206;11.550;2023-03-14T04:34:35;94147.88;;;10.52;73.55
6218;BME280;3142;48.206;11.550;2023-03-14T04:37:02;94143.91;;;10.49;73.60
6218;BME280;3142;48.206;11.550;2023-03-14T04:39:28;94134.91;;;10.57;73.82
6218;BME280;3142;48.206;11.550;2023-03-14T04:41:55;94126.00;;;10.58;73.20
6218;BME280;3142;48.206;11.550;2023-03-14T04:44:22;94132.28;;;10.57;73.11
6218;BME280;3142;48.206;11.550;2023-03-14T04:46:49;94141.72;;;10.58;72.83
6218;BME280;3142;48.206;11.550;2023-03-14T04:49:15;94141.84;;;10.51;73.00
6218;BME280;3142;48.206;11.550;2023-03-14T04:51:42;94146.16;;;10.57;72.52
6218;BME280;3142;48.206;11.550;2023-03-14T04:54:08;94117.03;;;10.54;72.71
6218;BME280;3142;48.206;11.550;2023-03-14T04:56:35;94124.81;;;10.49;72.34
6218;BME280;3142;48.206;11.550;2023-03-14T04:59:02;94115.16;;;10.49;72.35
6218;BME280;3142;48.206;11.550;2023-03-14T05:01:30;94110.94;;;10.48;72.47
6218;BME280;3142;48.206;11.550;2023-03-14T05:03:56;94088.69;;;10.46;72.67
6218;BME280;3142;48.206;11.550;2023-03-14T05:06:23;94084.25;;;10.46;72.43
6218;BME280;3142;48.206;11.550;2023-03-14T05:08:49;94093.44;;;10.49;72.04
6218;BME280;3142;48.206;11.550;2023-03-14T05:11:15;94100.81;;;10.52;72.56
6218;BME280;3142;48.206;11.550;2023-03-14T05:13:42;94109.19;;;10.54;71.86
6218;BME280;3142;48.206;11.550;2023-03-14T05:16:10;94106.69;;;10.59;71.91
6218;BME280;3142;48.206;11.550;2023-03-14T05:18:38;94092.31;;;10.61;71.22
6218;BME280;3142;48.206;11.550;2023-03-14T05:21:05;94115.56;;;10.58;71.45
6218;BME280;3142;48.206;11.550;2023-03-14T05:23:31;94106.13;;;10.57;71.14
6218;BME280;3142;48.206;11.550;2023-03-14T05:25:58;94087.25;;;10.55;71.57
6218;BME280;3142;48.206;11.550;2023-03-14T05:28:24;94089.31;;;10.53;71.73
6218;BME280;3142;48.206;11.550;2023-03-14T05:30:51;94095.56;;;10.52;71.81
6218;BME280;3142;48.206;11.550;2023-03-14T05:33:17;94102.16;;;10.54;71.18
6218;BME280;3142;48.206;11.550;2023-03-14T05:35:45;94096.59;;;10.51;71.31
6218;BME280;3142;48.206;11.550;2023-03-14T05:38:11;94098.97;;;10.52;71.23
6218;BME280;3142;48.206;11.550;2023-03-14T05:40:38;94104.22;;;10.52;71.42
6218;BME280;3142;48.206;11.550;2023-03-14T05:43:04;94099.69;;;10.48;71.53
6218;BME280;3142;48.206;11.550;2023-03-14T05:45:33;94093.94;;;10.46;71.73
6218;BME280;3142;48.206;11.550;2023-03-14T05:48:00;94091.78;;;10.43;71.54
6218;BME280;3142;48.206;11.550;2023-03-14T05:50:26;94090.91;;;10.37;72.01
6218;BME280;3142;48.206;11.550;2023-03-14T05:52:54;94095.34;;;10.36;71.84
6218;BME280;3142;48.206;11.550;2023-03-14T05:55:20;94089.56;;;10.34;72.34
6218;BME280;3142;48.206;11.550;2023-03-14T05:57:46;94084.09;;;10.36;72.58
6218;BME280;3142;48.206;11.550;2023-03-14T06:00:13;94082.03;;;10.38;72.09
6218;BME280;3142;48.206;11.550;2023-03-14T06:02:40;94077.84;;;10.37;72.17
6218;BME280;3142;48.206;11.550;2023-03-14T06:05:07;94070.72;;;10.32;71.91
6218;BME280;3142;48.206;11.550;2023-03-14T06:07:34;94070.00;;;10.37;71.85
6218;BME280;3142;48.206;11.550;2023-03-14T06:10:02;94073.09;;;10.34;72.13
6218;BME280;3142;48.206;11.550;2023-03-14T06:12:28;94073.09;;;10.34;72.21
6218;BME280;3142;48.206;11.550;2023-03-14T06:14:55;94077.28;;;10.35;71.91
6218;BME280;3142;48.206;11.550;2023-03-14T06:17:21;94063.97;;;10.36;71.30
6218;BME280;3142;48.206;11.550;2023-03-14T06:19:48;94070.78;;;10.37;71.46
6218;BME280;3142;48.206;11.550;2023-03-14T06:22:14;94067.47;;;10.42;71.34
6218;BME280;3142;48.206;11.550;2023-03-14T06:24:40;94066.69;;;10.42;71.44
6218;BME280;3142;48.206;11.550;2023-03-14T06:27:08;94070.09;;;10.42;71.39
6218;BME280;3142;48.206;11.550;2023-03-14T06:29:35;94062.78;;;10.44;71.43
6218;BME280;3142;48.206;11.550;2023-03-14T06:32:01;94060.25;;;10.49;71.24
6218;BME280;3142;48.206;11.550;2023-03-14T06:34:28;94050.03;;;10.48;71.76
6218;BME280;3142;48.206;11.550;2023-03-14T06:36:54;94041.41;;;10.47;71.20
6218;BME280;3142;48.206;11.550;2023-03-14T06:39:21;94039.97;;;10.39;71.48
6218;BME280;3142;48.206;11.550;2023-03-14T06:41:47;94029.50;;;10.39;71.76
6218;BME280;3142;48.206;11.550;2023-03-14T06:44:15;94039.25;;;10.44;72.11
6218;BME280;3142;48.206;11.550;2023-03-14T06:46:41;94028.56;;;10.46;71.53
6218;BME280;3142;48.206;11.550;2023-03-14T06:49:08;94027.53;;;10.47;70.92
6218;BME280;3142;48.206;11.550;2023-03-14T06:51:34;94030.16;;;10.47;71.13
6218;BME280;3142;48.206;11.550;2023-03-14T06:54:00;94023.81;;;10.43;70.67
6218;BME280;3142;48.206;11.550;2023-03-14T06:56:27;94036.41;;;10.46;70.86
6218;BME280;3142;48.206;11.550;2023-03-14T06:58:53;94046.63;;;10.47;70.51
6218;BME280;3142;48.206;11.550;2023-03-14T07:01:24;94056.09;;;10.53;70.92
6218;BME280;3142;48.206;11.550;2023-03-14T07:03:51;94054.06;;;10.55;70.74
6218;BME280;3142;48.206;11.550;2023-03-14T07:06:17;94070.31;;;10.57;70.17
6218;BME280;3142;48.206;11.550;2023-03-14T07:08:44;94063.72;;;10.55;69.96
6218;BME280;3142;48.206;11.550;2023-03-14T07:11:11;94082.66;;;10.62;70.01
6218;BME280;3142;48.206;11.550;2023-03-14T07:13:37;94083.94;;;10.59;69.62
6218;BME280;3142;48.206;11.550;2023-03-14T07:16:04;94088.84;;;10.56;70.26
6218;BME280;3142;48.206;11.550;2023-03-14T07:18:32;94082.91;;;10.60;70.35
6218;BME280;3142;48.206;11.550;2023-03-14T07:20:59;94072.97;;;10.62;68.90
6218;BME280;3142;48.206;11.550;2023-03-14T07:23:25;94074.56;;;10.63;68.82
6218;BME280;3142;48.206;11.550;2023-03-14T07:25:52;94086.84;;;10.63;68.54
6218;BME280;3142;48.206;11.550;2023-03-14T07:28:19;94081.06;;;10.61;68.80
6218;BME280;3142;48.206;11.550;2023-03-14T07:30:45;94068.53;;;10.63;69.03
6218;BME280;3142;48.206;11.550;2023-03-14T07:33:12;94070.91;;;10.64;69.10
6218;BME280;3142;48.206;11.550;2023-03-14T07:35:40;94068.59;;;10.68;68.62
6218;BME280;3142;48.206;11.550;2023-03-14T07:38:06;94063.94;;;10.70;68.92
6218;BME280;3142;48.206;11.550;2023-03-14T07:40:33;94068.16;;;10.71;68.54
6218;BME280;3142;48.206;11.550;2023-03-14T07:42:59;94070.03;;;10.76;68.08
6218;BME280;3142;48.206;11.550;2023-03-14T07:45:26;94066.38;;;10.77;68.17
6218;BME280;3142;48.206;11.550;2023-03-14T07:47:52;94067.22;;;10.82;68.02
6218;BME280;3142;48.206;11.550;2023-03-14T07:50:22;94056.06;;;10.87;67.67
6218;BME280;3142;48.206;11.550;2023-03-14T07:52:50;94056.06;;;10.87;67.58
6218;BME280;3142;48.206;11.550;2023-03-14T07:55:16;94058.97;;;10.90;67.28
6218;BME280;3142;48.206;11.550;2023-03-14T07:57:43;94047.84;;;11.00;67.03
6218;BME280;3142;48.206;11.550;2023-03-14T08:00:10;94054.72;;;11.06;66.98
6218;BME280;3142;48.206;11.550;2023-03-14T08:02:39;94056.63;;;11.11;67.08
6218;BME280;3142;48.206;11.550;2023-03-14T08:05:06;94068.69;;;11.12;66.46
6218;BME280;3142;48.206;11.550;2023-03-14T08:07:33;94061.28;;;11.09;66.64
6218;BME280;3142;48.206;11.550;2023-03-14T08:10:01;94052.00;;;11.18;66.27
6218;BME280;3142;48.206;11.550;2023-03-14T08:12:27;94065.06;;;11.18;66.00
6218;BME280;3142;48.206;11.550;2023-03-14T08:14:53;94066.16;;;11.22;65.48
6218;BME280;3142;48.206;11.550;2023-03-14T08:17:20;94067.03;;;11.27;65.27
6218;BME280;3142;48.206;11.550;2023-03-14T08:19:46;94067.31;;;11.31;65.33
6218;BME280;3142;48.206;11.550;2023-03-14T08:22:13;94054.47;;;11.30;65.08
6218;BME280;3142;48.206;11.550;2023-03-14T08:24:39;94064.47;;;11.33;65.11
6218;BME280;3142;48.206;11.550;2023-03-14T08:27:10;94066.00;;;11.28;64.89
6218;BME280;3142;48.206;11.550;2023-03-14T08:29:36;94061.34;;;11.36;64.49
6218;BME280;3142;48.206;11.550;2023-03-14T08:32:03;94062.47;;;11.40;64.16
6218;BME280;3142;48.206;11.550;2023-03-14T08:34:29;94065.53;;;11.37;63.99
6218;BME280;3142;48.206;11.550;2023-03-14T08:36:56;94069.78;;;11.38;64.28
6218;BME280;3142;48.206;11.550;2023-03-14T08:39:22;94072.44;;;11.43;63.79
6218;BME280;3142;48.206;11.550;2023-03-14T08:41:49;94079.25;;;11.44;63.38
6218;BME280;3142;48.206;11.550;2023-03-14T08:44:17;94085.00;;;11.41;63.78
6218;BME280;3142;48.206;11.550;2023-03-14T08:46:43;94072.44;;;11.43;63.25
6218;BME280;3142;48.206;11.550;2023-03-14T08:49:10;94094.44;;;11.42;64.00
6218;BME280;3142;48.206;11.550;2023-03-14T08:51:36;94089.72;;;11.44;63.69
6218;BME280;3142;48.206;11.550;2023-03-14T08:54:03;94095.25;;;11.47;63.37
6218;BME280;3142;48.206;11.550;2023-03-14T08:56:29;94094.19;;;11.43;64.50
6218;BME280;3142;48.206;11.550;2023-03-14T08:58:55;94104.22;;;11.51;63.92
6218;BME280;3142;48.206;11.550;2023-03-14T09:01:23;94105.56;;;11.54;63.87
6218;BME280;3142;48.206;11.550;2023-03-14T09:03:51;94092.28;;;11.61;63.22
6218;BME280;3142;48.206;11.550;2023-03-14T09:06:17;94096.28;;;11.68;63.46
6218;BME280;3142;48.206;11.550;2023-03-14T09:08:44;94096.09;;;11.75;62.56
6218;BME280;3142;48.206;11.550;2023-03-14T09:11:11;94095.41;;;11.79;60.47
6218;BME280;3142;48.206;11.550;2023-03-14T09:13:37;94100.94;;;11.83;60.95
6218;BME280;3142;48.206;11.550;2023-03-14T09:16:05;94098.59;;;11.86;60.61
6218;BME280;3142;48.206;11.550;2023-03-14T09:18:33;94095.97;;;11.86;60.55
6218;BME280;3142;48.206;11.550;2023-03-14T09:21:00;94091.53;;;11.87;60.88
6218;BME280;3142;48.206;11.550;2023-03-14T09:23:27;94091.78;;;11.85;61.23
6218;BME280;3142;48.206;11.550;2023-03-14T09:25:54;94098.84;;;11.85;60.35
6218;BME280;3142;48.206;11.550;2023-03-14T09:28:21;94095.44;;;11.84;60.79
6218;BME280;3142;48.206;11.550;2023-03-14T09:30:47;94091.78;;;11.85;60.35
6218;BME280;3142;48.206;11.550;2023-03-14T09:33:14;94087.56;;;11.84;61.04
6218;BME280;3142;48.206;11.550;2023-03-14T09:35:42;94076.25;;;11.79;60.65
6218;BME280;3142;48.206;11.550;2023-03-14T09:38:09;94077.88;;;11.85;60.99
6218;BME280;3142;48.206;11.550;2023-03-14T09:40:36;94074.72;;;11.83;61.03
6218;BME280;3142;48.206;11.550;2023-03-14T09:43:04;94073.41;;;11.80;60.57
6218;BME280;3142;48.206;11.550;2023-03-14T09:45:33;94072.59;;;11.80;60.18
6218;BME280;3142;48.206;11.550;2023-03-14T09:48:01;94075.25;;;11.85;60.69
6218;BME280;3142;48.206;11.550;2023-03-14T09:50:32;94074.47;;;11.84;60.47
6218;BME280;3142;48.206;11.550;2023-03-14T09:53:02;94075.56;;;11.89;59.64
6218;BME280;3142;48.206;11.550;2023-03-14T09:55:31;94066.13;;;11.88;59.81
6218;BME280;3142;48.206;11.550;2023-03-14T09:58:00;94063.25;;;11.89;59.12
6218;BME280;3142;48.206;11.550;2023-03-14T10:00:30;94065.13;;;11.94;59.60
6218;BME280;3142;48.206;11.550;2023-03-14T10:03:14;94063.06;;;11.96;59.11
6218;BME280;3142;48.206;11.550;2023-03-14T10:05:46;94062.81;;;11.97;58.60
6218;BME280;3142;48.206;11.550;2023-03-14T10:08:14;94058.88;;;12.00;58.28
6218;BME280;3142;48.206;11.550;2023-03-14T10:10:40;94067.03;;;12.03;58.32
6218;BME280;3142;48.206;11.550;2023-03-14T10:13:14;94066.31;;;12.08;57.76
6218;BME280;3142;48.206;11.550;2023-03-14T10:15:41;94065.59;;;12.18;58.05
6218;BME280;3142;48.206;11.550;2023-03-14T10:18:13;94061.97;;;12.24;58.24
6218;BME280;3142;48.206;11.550;2023-03-14T10:20:42;94053.97;;;12.40;58.46
6218;BME280;3142;48.206;11.550;2023-03-14T10:23:23;94055.81;;;12.82;56.28
6218;BME280;3142;48.206;11.550;2023-03-14T10:26:06;94039.91;;;13.97;54.27
6218;BME280;3142;48.206;11.550;2023-03-14T10:28:38;94043.31;;;14.94;52.20
6218;BME280;3142;48.206;11.550;2023-03-14T10:31:06;94037.56;;;14.82;51.47
6218;BME280;3142;48.206;11.550;2023-03-14T10:33:34;94038.66;;;14.56;52.10
6218;BME280;3142;48.206;11.550;2023-03-14T10:36:03;94037.81;;;14.09;52.37
6218;BME280;3142;48.206;11.550;2023-03-14T10:38:33;94041.22;;;13.74;53.62
6218;BME280;3142;48.206;11.550;2023-03-14T10:41:00;94043.56;;;13.66;53.59
6218;BME280;3142;48.206;11.550;2023-03-14T10:43:31;94047.19;;;13.54;53.04
6218;BME280;3142;48.206;11.550;2023-03-14T10:45:59;94038.81;;;13.57;53.33
6218;BME280;3142;48.206;11.550;2023-03-14T10:48:32;94044.28;;;13.41;54.06
6218;BME280;3142;48.206;11.550;2023-03-14T10:51:05;94050.78;;;13.28;53.68
6218;BME280;3142;48.206;11.550;2023-03-14T10:53:39;94060.94;;;13.14;53.72
6218;BME280;3142;48.206;11.550;2023-03-14T10:56:06;94051.47;;;13.08;54.03
6218;BME280;3142;48.206;11.550;2023-03-14T10:58:42;94050.69;;;13.08;55.12
6218;BME280;3142;48.206;11.550;2023-03-14T11:01:18;94052.50;;;13.02;54.57
6218;BME280;3142;48.206;11.550;2023-03-14T11:03:52;94055.66;;;13.04;54.38
6218;BME280;3142;48.206;11.550;2023-03-14T11:06:23;94050.91;;;13.01;55.60
6218;BME280;3142;48.206;11.550;2023-03-14T11:08:57;94042.53;;;13.04;55.99
6218;BME280;3142;48.206;11.550;2023-03-14T11:11:31;94054.63;;;13.10;55.72
6218;BME280;3142;48.206;11.550;2023-03-14T11:14:05;94047.28;;;13.12;53.96
6218;BME280;3142;48.206;11.550;2023-03-14T11:16:43;94051.31;;;13.20;54.25
6218;BME280;3142;48.206;11.550;2023-03-14T11:19:41;94059.19;;;13.25;52.16
6218;BME280;3142;48.206;11.550;2023-03-14T11:22:16;94061.56;;;13.26;51.42
6218;BME280;3142;48.206;11.550;2023-03-14T11:24:59;94037.47;;;13.45;51.37
6218;BME280;3142;48.206;11.550;2023-03-14T11:27:40;94043.81;;;13.64;51.22
6218;BME280;3142;48.206;11.550;2023-03-14T11:30:16;94039.16;;;14.02;50.73
6218;BME280;3142;48.206;11.550;2023-03-14T11:32:45;94058.38;;;14.17;50.01
6218;BME280;3142;48.206;11.550;2023-03-14T11:35:17;94036.00;;;14.00;49.67
6218;BME280;3142;48.206;11.550;2023-03-14T11:37:46;94040.75;;;14.13;50.21
6218;BME280;3142;48.206;11.550;2023-03-14T11:40:20;94024.69;;;14.19;49.91
6218;BME280;3142;48.206;11.550;2023-03-14T11:42:52;94023.66;;;14.15;50.23
6218;BME280;3142;48.206;11.550;2023-03-14T11:45:25;94016.03;;;13.99;50.41
6218;BME280;3142;48.206;11.550;2023-03-14T11:48:10;94018.63;;;13.88;50.58
6218;BME280;3142;48.206;11.550;2023-03-14T11:50:42;94013.88;;;13.80;51.46
6218;BME280;3142;48.206;11.550;2023-03-14T11:53:13;94021.75;;;13.70;51.11
6218;BME280;3142;48.206;11.550;2023-03-14T11:55:43;94009.91;;;13.62;51.67
6218;BME280;3142;48.206;11.550;2023-03-14T11:58:14;94004.41;;;13.64;53.06
6218;BME280;3142;48.206;11.550;2023-03-14T12:00:41;93998.91;;;13.71;51.54
6218;BME280;3142;48.206;11.550;2023-03-14T12:03:13;94012.56;;;13.62;51.15
6218;BME280;3142;48.206;11.550;2023-03-14T12:05:46;94005.44;;;13.58;51.91
6218;BME280;3142;48.206;11.550;2023-03-14T12:08:25;94011.22;;;13.60;52.58
6218;BME280;3142;48.206;11.550;2023-03-14T12:11:00;94015.19;;;13.57;51.12
6218;BME280;3142;48.206;11.550;2023-03-14T12:13:28;94017.53;;;13.59;51.46
6218;BME280;3142;48.206;11.550;2023-03-14T12:15:56;94009.09;;;13.47;51.10
6218;BME280;3142;48.206;11.550;2023-03-14T12:18:27;94008.81;;;13.38;51.23
6218;BME280;3142;48.206;11.550;2023-03-14T12:20:55;94020.63;;;13.36;51.43
6218;BME280;3142;48.206;11.550;2023-03-14T12:23:24;94014.31;;;13.31;51.96
6218;BME280;3142;48.206;11.550;2023-03-14T12:26:12;94027.44;;;13.31;51.52
6218;BME280;3142;48.206;11.550;2023-03-14T12:28:42;94013.28;;;13.32;52.52
6218;BME280;3142;48.206;11.550;2023-03-14T12:31:44;94019.56;;;13.31;52.04
6218;BME280;3142;48.206;11.550;2023-03-14T12:34:28;94007.72;;;13.29;51.33
6218;BME280;3142;48.206;11.550;2023-03-14T12:37:04;94010.91;;;13.36;52.47
6218;BME280;3142;48.206;11.550;2023-03-14T12:39:37;94023.28;;;13.51;51.92
6218;BME280;3142;48.206;11.550;2023-03-14T12:42:11;94011.50;;;13.63;51.14
6218;BME280;3142;48.206;11.550;2023-03-14T12:44:46;94009.66;;;13.69;52.11
6218;BME280;3142;48.206;11.550;2023-03-14T12:47:52;94013.88;;;13.96;51.24
6218;BME280;3142;48.206;11.550;2023-03-14T12:50:31;94019.44;;;14.04;49.86
6218;BME280;3142;48.206;11.550;2023-03-14T12:53:18;94019.41;;;13.89;50.36
6218;BME280;3142;48.206;11.550;2023-03-14T12:55:51;94025.72;;;13.78;51.44
6218;BME280;3142;48.206;11.550;2023-03-14T12:58:28;94026.47;;;13.63;50.69
6218;BME280;3142;48.206;11.550;2023-03-14T13:01:00;94019.09;;;13.55;51.91
6218;BME280;3142;48.206;11.550;2023-03-14T13:03:38;94039.06;;;13.46;52.50
6218;BME280;3142;48.206;11.550;2023-03-14T13:06:05;94047.94;;;13.40;52.17
6218;BME280;3142;48.206;11.550;2023-03-14T13:08:35;94057.41;;;13.30;51.78
6218;BME280;3142;48.206;11.550;2023-03-14T13:11:04;94051.00;;;13.16;52.06
6218;BME280;3142;48.206;11.550;2023-03-14T13:13:35;94055.16;;;13.12;52.63
6218;BME280;3142;48.206;11.550;2023-03-14T13:16:04;94060.91;;;13.04;52.92
6218;BME280;3142;48.206;11.550;2023-03-14T13:18:34;94053.31;;;13.02;53.56